No particular awareness of the weather is required.    There are no Weather-warnings


Meteo18 Weather Cam more information Meteo18 Weather Cam


Thunder radar more information blitzortung!


Rain radar more information rain snow radar


Visit our other weather sites:

Template documentation
and downloads

And another site



Weather Underground History page Text

Daily Summary for February 10, 2017 Units:  English    Metric   Both
« Previous Day
Next Day »
Daily Weekly Monthly Yearly Custom
  High: Low: Average:
Temperature: 40.5 °F 30.6 °F 35.1 °F
Dew Point: 35.6 °F 28 °F 31.8 °F
Humidity: 92 % 81 % 88 %
Wind Speed: 8 mph 0 mph 2.5 mph
Wind Gust: 10 mph - -
Wind:- - South
Pressure: 30.1 in 30 in -
Precipitation: 0 in    
Historical Graphs
 
 
Tabular Data for February 10, 2017
Time Temperature Dew Point Pressure Wind Wind Speed Wind Gust Humidity Rainfall Rate (Hourly)
00:07 32.5 °F 29.7 °F 30.1 in Calm   4 mph 89 % 0 in
00:12 32.4 °F 29.5 °F 30.1 in Calm   1 mph 89 % 0 in
00:17 32.4 °F 29.5 °F 30.1 in Calm   1 mph 89 % 0 in
00:22 32.4 °F 29.5 °F 30.1 in Calm   1 mph 89 % 0 in
00:27 32.5 °F 29.7 °F 30.1 in NNW 1 mph 2 mph 89 % 0 in
00:32 32.5 °F 29.7 °F 30.1 in NNW 1 mph 2 mph 89 % 0 in
00:42 32.7 °F 29.5 °F 30.1 in NNW 1 mph 4 mph 88 % 0 in
00:57 33.1 °F 29.8 °F 30.1 in NNW 4 mph 5 mph 88 % 0 in
01:02 33.1 °F 29.7 °F 30.1 in North 2 mph 5 mph 87 % 0 in
01:17 33.1 °F 29.7 °F 30.1 in North 3 mph 5 mph 87 % 0 in
01:27 33.1 °F 29.8 °F 30.1 in North 1 mph 5 mph 88 % 0 in
01:32 33.1 °F 29.8 °F 30.1 in North 2 mph 5 mph 88 % 0 in
01:37 33.1 °F 29.7 °F 30.1 in North 1 mph 4 mph 87 % 0 in
02:02 33.1 °F 29.7 °F 30.1 in Calm   5 mph 87 % 0 in
02:07 32.9 °F 29.7 °F 30.1 in NE 3 mph 5 mph 88 % 0 in
02:22 32.7 °F 29.3 °F 30.1 in NE 1 mph 5 mph 87 % 0 in
02:27 32.7 °F 29.3 °F 30.1 in NNW 3 mph 5 mph 87 % 0 in
02:37 32.7 °F 29.3 °F 30.1 in NNE 3 mph 5 mph 87 % 0 in
02:47 32.5 °F 29.3 °F 30.1 in NNE 3 mph 6 mph 88 % 0 in
02:52 32.5 °F 29.3 °F 30.1 in NE 1 mph 7 mph 88 % 0 in
02:57 32.5 °F 29.3 °F 30.1 in NE 7 mph 7 mph 88 % 0 in
03:02 32.5 °F 29.3 °F 30.1 in NE 2 mph 8 mph 88 % 0 in
03:07 32.4 °F 29.1 °F 30.1 in North 3 mph 8 mph 88 % 0 in
03:12 32.4 °F 29.1 °F 30.1 in North 4 mph 8 mph 88 % 0 in
03:17 32.4 °F 29.1 °F 30.1 in NNE 3 mph 7 mph 88 % 0 in
03:22 32.2 °F 28.9 °F 30.1 in North 2 mph 6 mph 88 % 0 in
03:27 32.2 °F 29.3 °F 30.1 in North 1 mph 6 mph 89 % 0 in
03:32 32 °F 29.1 °F 30.1 in NNW 4 mph 6 mph 89 % 0 in
03:37 32 °F 29.1 °F 30.1 in North 2 mph 8 mph 89 % 0 in
03:42 31.8 °F 28.9 °F 30.1 in North 1 mph 8 mph 89 % 0 in
03:47 31.6 °F 28.8 °F 30.1 in Calm   8 mph 89 % 0 in
03:52 31.6 °F 29.1 °F 30.1 in North 2 mph 5 mph 90 % 0 in
03:57 31.5 °F 28.9 °F 30.1 in North 2 mph 5 mph 90 % 0 in
04:02 31.5 °F 28.9 °F 30.1 in North 2 mph 5 mph 90 % 0 in
04:07 31.3 °F 28.8 °F 30.1 in NNE 1 mph 5 mph 90 % 0 in
04:12 31.1 °F 28.6 °F 30.1 in Calm   5 mph 90 % 0 in
04:17 30.9 °F 28.4 °F 30.1 in North 2 mph 4 mph 90 % 0 in
04:22 30.9 °F 28.4 °F 30.1 in North 3 mph 5 mph 90 % 0 in
04:27 30.9 °F 28.4 °F 30.1 in North 1 mph 5 mph 90 % 0 in
04:32 30.9 °F 28.4 °F 30.1 in North 1 mph 5 mph 90 % 0 in
04:37 30.7 °F 28.2 °F 30 in NNE 2 mph 5 mph 90 % 0 in
04:42 30.7 °F 28.2 °F 30 in Calm   4 mph 90 % 0 in
04:47 30.6 °F 28 °F 30.1 in NNW 1 mph 4 mph 90 % 0 in
04:52 30.6 °F 28.2 °F 30.1 in Calm   4 mph 91 % 0 in
04:57 30.6 °F 28.2 °F 30.1 in Calm   7 mph 91 % 0 in
05:02 30.7 °F 28.2 °F 30.1 in Calm   7 mph 90 % 0 in
05:07 30.6 °F 28 °F 30.1 in North 1 mph 7 mph 90 % 0 in
05:12 30.6 °F 28 °F 30.1 in NE 2 mph 7 mph 90 % 0 in
05:17 30.7 °F 28.4 °F 30.1 in NNE 1 mph 4 mph 91 % 0 in
05:22 30.7 °F 28.4 °F 30.1 in NNW 1 mph 3 mph 91 % 0 in
05:27 30.9 °F 28.4 °F 30.1 in NNE 1 mph 2 mph 90 % 0 in
05:32 30.9 °F 28.4 °F 30.1 in Calm   2 mph 90 % 0 in
05:37 30.9 °F 28.4 °F 30.1 in NNW 1 mph 3 mph 90 % 0 in
05:42 31.3 °F 28.8 °F 30.1 in North 1 mph 3 mph 90 % 0 in
05:47 31.3 °F 28.8 °F 30.1 in Calm   4 mph 90 % 0 in
05:52 31.5 °F 28.9 °F 30.1 in Calm   4 mph 90 % 0 in
05:57 31.5 °F 28.9 °F 30.1 in NNW 1 mph 3 mph 90 % 0 in
06:02 31.6 °F 29.1 °F 30.1 in NNE 1 mph 3 mph 90 % 0 in
06:07 31.6 °F 28.8 °F 30.1 in NNW 1 mph 3 mph 89 % 0 in
06:12 31.6 °F 28.8 °F 30.1 in North 2 mph 3 mph 89 % 0 in
06:17 31.6 °F 28.8 °F 30.1 in Calm   3 mph 89 % 0 in
06:22 31.8 °F 28.9 °F 30.1 in NE 1 mph 3 mph 89 % 0 in
06:27 31.8 °F 28.9 °F 30.1 in Calm   3 mph 89 % 0 in
06:32 31.8 °F 28.9 °F 30.1 in NE 2 mph 5 mph 89 % 0 in
06:37 31.8 °F 28.9 °F 30.1 in NNE 1 mph 5 mph 89 % 0 in
06:42 31.8 °F 28.9 °F 30 in NNW 2 mph 5 mph 89 % 0 in
06:47 31.8 °F 28.9 °F 30 in NE 4 mph 5 mph 89 % 0 in
06:52 31.8 °F 28.9 °F 30 in NNE 2 mph 5 mph 89 % 0 in
06:57 31.8 °F 28.9 °F 30 in North 1 mph 6 mph 89 % 0 in
07:02 31.8 °F 28.9 °F 30 in NE 1 mph 6 mph 89 % 0 in
07:12 31.6 °F 28.8 °F 30 in Calm   7 mph 89 % 0 in
07:17 31.6 °F 28.8 °F 30 in North 2 mph 8 mph 89 % 0 in
07:22 31.6 °F 28.8 °F 30 in NW 1 mph 8 mph 89 % 0 in
07:27 31.6 °F 28.8 °F 30 in NE 3 mph 7 mph 89 % 0 in
07:32 31.6 °F 28.8 °F 30 in NNW 4 mph 7 mph 89 % 0 in
07:37 31.6 °F 28.8 °F 30 in NNW 2 mph 7 mph 89 % 0 in
07:42 31.6 °F 28.8 °F 30 in NE 2 mph 7 mph 89 % 0 in
07:47 31.6 °F 28.8 °F 30 in NNW 2 mph 5 mph 89 % 0 in
07:57 31.6 °F 28.8 °F 30 in NNE 3 mph 8 mph 89 % 0 in
08:02 31.6 °F 28.8 °F 30.1 in NNE 1 mph 8 mph 89 % 0 in
08:07 31.6 °F 28.8 °F 30.1 in North 4 mph 6 mph 89 % 0 in
08:12 31.8 °F 28.9 °F 30.1 in NE 3 mph 6 mph 89 % 0 in
08:17 31.8 °F 28.9 °F 30.1 in NE 5 mph 6 mph 89 % 0 in
08:22 31.8 °F 28.9 °F 30.1 in NNE 3 mph 6 mph 89 % 0 in
08:27 31.8 °F 28.9 °F 30.1 in NE 4 mph 8 mph 89 % 0 in
08:32 31.6 °F 28.8 °F 30.1 in NNE 6 mph 8 mph 89 % 0 in
08:37 31.6 °F 28.8 °F 30.1 in NE 4 mph 8 mph 89 % 0 in
08:42 31.6 °F 28.8 °F 30.1 in Calm   8 mph 89 % 0 in
08:47 31.8 °F 29.3 °F 30.1 in North 1 mph 8 mph 90 % 0 in
08:57 31.8 °F 29.3 °F 30.1 in NNE 2 mph 7 mph 90 % 0 in
09:02 31.8 °F 29.3 °F 30.1 in NNW 3 mph 7 mph 90 % 0 in
09:07 31.8 °F 29.3 °F 30.1 in NE 4 mph 7 mph 90 % 0 in
09:12 31.8 °F 29.3 °F 30.1 in NNE 7 mph 7 mph 90 % 0 in
09:17 31.8 °F 29.3 °F 30.1 in NNE 1 mph 10 mph 90 % 0 in
09:27 32 °F 29.5 °F 30.1 in NNW 6 mph 8 mph 90 % 0 in
09:32 32 °F 29.5 °F 30.1 in NNE 2 mph 8 mph 90 % 0 in
09:37 32.2 °F 29.7 °F 30.1 in NW 4 mph 8 mph 90 % 0 in
09:42 32.2 °F 29.7 °F 30.1 in NE 2 mph 8 mph 90 % 0 in
09:47 32.4 °F 29.8 °F 30.1 in NNE 1 mph 7 mph 90 % 0 in
09:52 32.4 °F 29.8 °F 30.1 in NNE 2 mph 7 mph 90 % 0 in
09:57 32.4 °F 29.8 °F 30.1 in NE 5 mph 7 mph 90 % 0 in
10:02 32.5 °F 30 °F 30.1 in NNE 4 mph 7 mph 90 % 0 in
10:07 32.7 °F 30.2 °F 30.1 in NNE 2 mph 7 mph 90 % 0 in
10:12 32.7 °F 30.2 °F 30.1 in NNW 1 mph 7 mph 90 % 0 in
10:17 33.1 °F 30.4 °F 30.1 in North 1 mph 7 mph 90 % 0 in
10:22 33.3 °F 30.4 °F 30.1 in Calm   4 mph 89 % 0 in
10:27 33.3 °F 30.4 °F 30.1 in Calm   4 mph 89 % 0 in
10:32 33.4 °F 30.6 °F 30.1 in North 1 mph 2 mph 89 % 0 in
10:37 33.4 °F 30.6 °F 30.1 in Calm   2 mph 89 % 0 in
10:42 33.6 °F 30.7 °F 30.1 in NNE 2 mph 2 mph 89 % 0 in
10:47 33.8 °F 30.6 °F 30.1 in Calm   3 mph 88 % 0 in
10:52 34.2 °F 31.3 °F 30.1 in NNW 1 mph 3 mph 89 % 0 in
10:57 34.3 °F 31.1 °F 30.1 in North 1 mph 3 mph 88 % 0 in
11:02 34.7 °F 31.5 °F 30.1 in North 2 mph 4 mph 88 % 0 in
11:07 34.7 °F 31.3 °F 30.1 in NNW 2 mph 4 mph 87 % 0 in
11:12 34.9 °F 31.6 °F 30.1 in NNW 2 mph 4 mph 88 % 0 in
11:17 35.1 °F 31.8 °F 30.1 in North 1 mph 5 mph 88 % 0 in
11:22 35.4 °F 32.2 °F 30.1 in North 1 mph 5 mph 88 % 0 in
11:27 35.8 °F 32.5 °F 30.1 in Calm   5 mph 88 % 0 in
11:32 36.1 °F 32.7 °F 30.1 in NNE 1 mph 5 mph 87 % 0 in
11:42 36.9 °F 33.1 °F 30.1 in NE 3 mph 5 mph 86 % 0 in
11:47 37.2 °F 33.4 °F 30.1 in North 3 mph 5 mph 86 % 0 in
11:52 37.9 °F 34.2 °F 30.1 in North 4 mph 6 mph 86 % 0 in
12:02 38.1 °F 34 °F 30.1 in East 1 mph 6 mph 85 % 0 in
12:07 38.5 °F 34.3 °F 30.1 in NNW 1 mph 6 mph 85 % 0 in
12:12 38.5 °F 34.2 °F 30.1 in ENE 3 mph 6 mph 84 % 0 in
12:17 38.5 °F 33.8 °F 30.1 in Calm   7 mph 83 % 0 in
12:22 38.7 °F 34.5 °F 30.1 in NNE 5 mph 7 mph 85 % 0 in
12:27 38.5 °F 33.8 °F 30.1 in North 5 mph 7 mph 83 % 0 in
12:32 38.5 °F 34.2 °F 30.1 in Calm   7 mph 84 % 0 in
12:37 38.7 °F 34.2 °F 30.1 in NNE 5 mph 8 mph 84 % 0 in
12:42 38.7 °F 34.2 °F 30.1 in NE 4 mph 7 mph 84 % 0 in
12:47 38.7 °F 34.2 °F 30 in Calm   7 mph 84 % 0 in
12:52 39 °F 34.3 °F 30 in NNW 1 mph 7 mph 83 % 0 in
12:57 39.6 °F 34.9 °F 30.1 in North 1 mph 5 mph 83 % 0 in
13:02 39.6 °F 34.5 °F 30.1 in Calm   6 mph 82 % 0 in
13:07 39.6 °F 35.1 °F 30.1 in NW 2 mph 6 mph 84 % 0 in
13:12 39.7 °F 34.7 °F 30.1 in North 2 mph 6 mph 82 % 0 in
13:17 39.6 °F 34.5 °F 30.1 in NNW 4 mph 4 mph 82 % 0 in
13:22 39.7 °F 35.1 °F 30.1 in WNW 2 mph 4 mph 83 % 0 in
13:27 39.9 °F 34.9 °F 30.1 in NW 3 mph 4 mph 82 % 0 in
13:37 39.9 °F 34.9 °F 30 in NNE 3 mph 6 mph 82 % 0 in
13:42 39.9 °F 34.9 °F 30 in NNW 2 mph 5 mph 82 % 0 in
13:47 39.9 °F 34.5 °F 30 in Calm   5 mph 81 % 0 in
13:52 39.9 °F 34.9 °F 30 in NE 8 mph 8 mph 82 % 0 in
13:57 39.7 °F 35.1 °F 30 in NNW 6 mph 10 mph 83 % 0 in
14:02 39.7 °F 34.7 °F 30 in NNW 6 mph 10 mph 82 % 0 in
14:07 39.9 °F 35.2 °F 30 in NW 2 mph 10 mph 83 % 0 in
14:17 40.3 °F 35.2 °F 30 in ENE 1 mph 10 mph 82 % 0 in
14:22 40.3 °F 34.9 °F 30 in NE 5 mph 10 mph 81 % 0 in
14:27 40.3 °F 35.2 °F 30 in NE 6 mph 10 mph 82 % 0 in
14:32 40.3 °F 35.2 °F 30 in NNE 6 mph 10 mph 82 % 0 in
14:37 40.3 °F 35.2 °F 30 in North 2 mph 10 mph 82 % 0 in
14:42 40.5 °F 35.4 °F 30 in ENE 1 mph 9 mph 82 % 0 in
14:47 40.3 °F 34.9 °F 30 in NNE 6 mph 9 mph 81 % 0 in
14:52 40.1 °F 35.1 °F 30 in NNW 2 mph 7 mph 82 % 0 in
14:57 40.3 °F 35.2 °F 30 in North 3 mph 9 mph 82 % 0 in
15:02 40.3 °F 35.6 °F 30 in NNE 7 mph 9 mph 83 % 0 in
15:07 40.3 °F 34.9 °F 30 in North 4 mph 8 mph 81 % 0 in
15:12 40.3 °F 35.2 °F 30 in North 3 mph 8 mph 82 % 0 in
15:17 40.3 °F 35.2 °F 30 in NNE 3 mph 7 mph 82 % 0 in
15:22 40.1 °F 35.1 °F 30 in ENE 1 mph 8 mph 82 % 0 in
15:27 39.9 °F 34.9 °F 30 in NE 5 mph 8 mph 82 % 0 in
15:32 39.9 °F 35.4 °F 30 in Calm   8 mph 84 % 0 in
15:37 39.7 °F 35.1 °F 30 in North 3 mph 8 mph 83 % 0 in
15:42 39.7 °F 35.1 °F 30 in NNE 3 mph 9 mph 83 % 0 in
15:47 39.9 °F 35.4 °F 30 in NNW 3 mph 9 mph 84 % 0 in
15:52 39.7 °F 35.1 °F 30 in NNW 5 mph 8 mph 83 % 0 in
15:57 39.7 °F 35.1 °F 30 in North 6 mph 9 mph 83 % 0 in
16:02 39.6 °F 34.9 °F 30 in NNW 5 mph 9 mph 83 % 0 in
16:07 39.7 °F 35.2 °F 30 in North 3 mph 9 mph 84 % 0 in
16:17 39.6 °F 34.9 °F 30 in NNE 2 mph 8 mph 83 % 0 in
16:22 39.7 °F 35.2 °F 30 in NNW 3 mph 8 mph 84 % 0 in
16:27 39.9 °F 35.4 °F 30 in NW 3 mph 8 mph 84 % 0 in
16:32 39.7 °F 35.1 °F 30 in North 5 mph 8 mph 83 % 0 in
16:42 39.7 °F 35.2 °F 30 in NNW 4 mph 8 mph 84 % 0 in
16:47 39.6 °F 34.9 °F 30 in NNW 3 mph 8 mph 83 % 0 in
16:52 39.6 °F 35.1 °F 30 in NW 5 mph 8 mph 84 % 0 in
16:57 39.4 °F 34.9 °F 30 in North 4 mph 8 mph 84 % 0 in
17:02 39.4 °F 34.9 °F 30 in NNW 2 mph 10 mph 84 % 0 in
17:07 39 °F 34.5 °F 30 in WNW 5 mph 10 mph 84 % 0 in
17:12 39 °F 34.9 °F 30.1 in NNE 8 mph 10 mph 85 % 0 in
17:17 38.8 °F 34.7 °F 30 in NNW 2 mph 10 mph 85 % 0 in
17:22 38.8 °F 34.7 °F 30 in North 3 mph 10 mph 85 % 0 in
17:27 38.7 °F 34.5 °F 30.1 in North 4 mph 10 mph 85 % 0 in
17:32 38.5 °F 34.7 °F 30.1 in North 3 mph 10 mph 86 % 0 in
17:37 38.5 °F 34.7 °F 30.1 in North 4 mph 10 mph 86 % 0 in
17:42 38.1 °F 34.3 °F 30.1 in NNW 4 mph 10 mph 86 % 0 in
17:52 37.9 °F 34.2 °F 30.1 in NNE 6 mph 10 mph 86 % 0 in
17:57 37.8 °F 34 °F 30.1 in NW 2 mph 10 mph 86 % 0 in
18:02 37.8 °F 34.2 °F 30.1 in NNE 2 mph 9 mph 87 % 0 in
18:07 37.6 °F 34 °F 30.1 in ENE 1 mph 8 mph 87 % 0 in
18:12 37.4 °F 33.8 °F 30.1 in NNW 5 mph 8 mph 87 % 0 in
18:17 37.2 °F 33.8 °F 30.1 in North 2 mph 8 mph 87 % 0 in
18:22 37 °F 33.8 °F 30.1 in NNW 2 mph 8 mph 88 % 0 in
18:27 36.9 °F 33.6 °F 30.1 in NNE 1 mph 7 mph 88 % 0 in
18:32 36.9 °F 34 °F 30.1 in NNW 4 mph 7 mph 89 % 0 in
18:37 36.7 °F 33.8 °F 30.1 in NW 3 mph 7 mph 89 % 0 in
18:42 36.7 °F 33.8 °F 30.1 in NNW 3 mph 7 mph 89 % 0 in
18:47 36.7 °F 33.8 °F 30.1 in North 3 mph 7 mph 89 % 0 in
18:52 36.7 °F 33.8 °F 30.1 in NNW 5 mph 9 mph 89 % 0 in
18:57 36.7 °F 33.8 °F 30.1 in NW 1 mph 9 mph 89 % 0 in
19:02 36.5 °F 33.6 °F 30.1 in NNW 5 mph 9 mph 89 % 0 in
19:07 36.3 °F 33.4 °F 30.1 in NNW 3 mph 9 mph 89 % 0 in
19:12 36.3 °F 33.4 °F 30.1 in North 3 mph 9 mph 89 % 0 in
19:17 36.3 °F 33.4 °F 30.1 in NNW 3 mph 7 mph 89 % 0 in
19:22 36.3 °F 33.4 °F 30.1 in NNW 3 mph 7 mph 89 % 0 in
19:27 36.3 °F 33.6 °F 30.1 in NW 1 mph 7 mph 90 % 0 in
19:32 36.3 °F 33.6 °F 30.1 in NW 3 mph 7 mph 90 % 0 in
19:37 36.3 °F 33.6 °F 30.1 in NNE 4 mph 7 mph 90 % 0 in
19:42 36.3 °F 33.6 °F 30.1 in NW 3 mph 7 mph 90 % 0 in
19:52 36.1 °F 33.4 °F 30.1 in NNW 2 mph 8 mph 90 % 0 in
19:57 36 °F 33.3 °F 30.1 in NNE 4 mph 8 mph 90 % 0 in
20:02 36 °F 33.3 °F 30.1 in NNW 2 mph 8 mph 90 % 0 in
20:07 35.8 °F 33.1 °F 30.1 in NNW 2 mph 7 mph 90 % 0 in
20:12 35.8 °F 33.1 °F 30.1 in North 3 mph 7 mph 90 % 0 in
20:17 35.6 °F 33.3 °F 30.1 in NNW 4 mph 9 mph 91 % 0 in
20:22 35.4 °F 33.1 °F 30.1 in NW 3 mph 9 mph 91 % 0 in
20:27 35.4 °F 33.1 °F 30.1 in NW 3 mph 9 mph 91 % 0 in
20:37 35.1 °F 32.7 °F 30.1 in NW 3 mph 7 mph 91 % 0 in
20:42 35.1 °F 32.7 °F 30.1 in NNW 3 mph 5 mph 91 % 0 in
20:47 35.1 °F 32.7 °F 30.1 in NW 2 mph 5 mph 91 % 0 in
20:57 34.7 °F 32.4 °F 30.1 in North 2 mph 5 mph 91 % 0 in
21:02 34.5 °F 32.4 °F 30.1 in NNW 1 mph 5 mph 92 % 0 in
21:12 34.5 °F 32.4 °F 30.1 in NNW 1 mph 5 mph 92 % 0 in
21:17 34.5 °F 32.4 °F 30.1 in NNW 2 mph 5 mph 92 % 0 in
21:22 34.5 °F 32.4 °F 30.1 in NNW 2 mph 5 mph 92 % 0 in
21:32 34.7 °F 32.5 °F 30.1 in NW 1 mph 8 mph 92 % 0 in
21:37 34.7 °F 32.5 °F 30.1 in NNW 3 mph 8 mph 92 % 0 in
21:42 34.9 °F 32.7 °F 30.1 in NW 5 mph 8 mph 92 % 0 in
21:47 34.9 °F 32.7 °F 30.1 in NNW 4 mph 8 mph 92 % 0 in
21:57 34.9 °F 32.7 °F 30.1 in NNW 5 mph 8 mph 92 % 0 in
22:02 34.9 °F 32.7 °F 30.1 in North 6 mph 10 mph 92 % 0 in
22:07 35.1 °F 32.9 °F 30.1 in NNW 6 mph 10 mph 92 % 0 in
22:12 35.1 °F 32.9 °F 30.1 in North 5 mph 10 mph 92 % 0 in
22:17 34.9 °F 32.7 °F 30.1 in NNW 5 mph 8 mph 92 % 0 in
22:22 34.9 °F 32.7 °F 30.1 in North 6 mph 8 mph 92 % 0 in
22:32 34.9 °F 32.7 °F 30.1 in North 3 mph 9 mph 92 % 0 in
22:37 34.9 °F 32.7 °F 30.1 in NW 4 mph 9 mph 92 % 0 in
22:42 34.9 °F 32.7 °F 30.1 in NW 5 mph 9 mph 92 % 0 in
22:47 34.9 °F 32.7 °F 30.1 in NNW 4 mph 9 mph 92 % 0 in
22:52 34.9 °F 32.7 °F 30.1 in NNW 3 mph 9 mph 92 % 0 in
22:57 34.9 °F 32.5 °F 30.1 in NNE 5 mph 9 mph 91 % 0 in
23:02 34.9 °F 32.5 °F 30.1 in NNW 2 mph 8 mph 91 % 0 in
23:07 34.9 °F 32.5 °F 30.1 in NNW 3 mph 8 mph 91 % 0 in
23:12 34.9 °F 32.5 °F 30.1 in NNE 3 mph 8 mph 91 % 0 in
23:17 34.9 °F 32.5 °F 30.1 in NNW 5 mph 9 mph 91 % 0 in
23:22 34.9 °F 32.5 °F 30.1 in NNW 2 mph 9 mph 91 % 0 in
23:32 34.9 °F 32.5 °F 30.1 in NNE 4 mph 8 mph 91 % 0 in
23:42 34.9 °F 32.5 °F 30.1 in NNE 4 mph 7 mph 91 % 0 in
23:47 34.9 °F 32.5 °F 30.1 in North 3 mph 9 mph 91 % 0 in
23:52 34.9 °F 32.5 °F 30.1 in NNE 3 mph 9 mph 91 % 0 in
23:57 34.9 °F 32.5 °F 30.1 in NNW 4 mph 9 mph 91 % 0 in
Meteo18
Compliments of Weather Underground - 4 mb

Script developed by  Jim McMurry - jmcmurry@mwt.net Adapted for the template by  Wim van der Kuil - Leuven-Template.eu

You find our weather info also at:

European Weather Network

Weather Underground

Equipment we use:

Weather-station
Davis Vue

Weather-program
Meteohub

Weather-server
Raspberry PI 2 B+

Provider
1 and 1

Davis Vue

Meteohub

Raspberry PI 2 B+

1 and 1